Overview Statistics Trail Chart Weather Telemetry Raw packets
 

This is the latest recevied weather packets stored in our database for station/object AI5BL. If no packets are shown the sender has not sent any weather packets the latest 10 day(s).

<< 41 42 43 44 45 46 47 >>
Time Temp. Humidity Pressure Rain* Wind** Luminosity Snow
1788378630 34.44° C 50% 1017.9 hPa 0 mm - 78 W/m² -
1788378330 35° C 49% 1017.7 hPa 0 mm - 88 W/m² -
1788378026 33.89° C 54% 1018 hPa 0 mm - 158 W/m² -
1788377722 33.33° C 61% 1018 hPa 0 mm - 194 W/m² -
1788377435 32.78° C 58% 1018.1 hPa 0 mm - 739 W/m² -
1788377119 32.78° C 61% 1018.2 hPa 0 mm - 89 W/m² -
1788376818 33.33° C 59% 1018.4 hPa 0 mm - 82 W/m² -
1788376514 35° C 57% 1018.4 hPa 0 mm - 91 W/m² -
1788376209 35.56° C 55% 1018.6 hPa 0 mm - 102 W/m² -
1788375904 34.44° C 54% 1018.6 hPa 0 mm - 834 W/m² -
1788375599 34.44° C 57% 1018.7 hPa 0 mm - 123 W/m² -
1788375295 34.44° C 55% 1018.9 hPa 0 mm - 136 W/m² -
1788374990 33.89° C 56% 1018.9 hPa 0 mm - 131 W/m² -
1788374685 34.44° C 55% 1019 hPa 0 mm - 104 W/m² -
1788374381 36.11° C 52% 1018.7 hPa 0 mm - 216 W/m² -
1788374077 35° C 57% 1018.7 hPa 0 mm - 860 W/m² -
1788373773 36.11° C 50% 1019.1 hPa 0 mm - 136 W/m² -
1788373469 36.11° C 47% 1019.3 hPa 0 mm - 758 W/m² -
1788373165 36.11° C 52% 1019.1 hPa 0 mm - 860 W/m² -
1788372860 36.67° C 50% 1019.3 hPa 0 mm - 178 W/m² -
1788372554 36.67° C 50% 1019.2 hPa 0 mm - 855 W/m² -
1788372250 35.56° C 52% 1019.3 hPa 0 mm - 851 W/m² -
1788371945 36.11° C 48% 1019.4 hPa 0 mm - 839 W/m² -
1788371640 35.56° C 51% 1019.3 hPa 0 mm - 822 W/m² -
1788371336 35.56° C 52% 1019.5 hPa 0 mm - 823 W/m² -

* Rain latest hour (hover to see other rain measurements)
** Current wind speed in m/s (hover to see current wind gust speed)